Des Moines, IA (50312)

1:26 AM CST on March 01, 2015 (GMT -0600)
Wunderbury | Change Station
CLOSE
Current Station
Personal Weather Station
Location: Des Moines, IA
Elevation: 900 ft
Nearby Weather Stations

Elev 900 ft 41.59 °N, 93.69 °W | Updated 8 seconds ago

Overcast
Overcast
20.5 °F
Feels Like 20 °F
N
0.0
Wind Variable Wind from North
Gusts 0.0 mph

Today
High -- | Low -- °F
--% Chance of Precip.
Yesterday
High -- | Low -- °F
Precip. -- in
6:49 AM 6:05 PM
Waxing Gibbous, 83% visible
Pressure 30.42 in
Visibility 6.0 miles
Clouds Overcast 2100 ft
Windchill 20 °F
Dew Point 14 °F
Humidity 77%
Rainfall 0.00 in
Snow Depth Not available.
UV 0 out of 12
Pollen .50 out of 12
Air Quality Not available.
Flu Activity Not available.
METAR KDSM 010654Z 16006KT 6SM -SN BR OVC021 M07/M09 A3037 RMK AO2 SLP299 P0000 T10671089

More Conditions Fewer Conditions

Pressure 30.42 in
Visibility 6.0 miles
Clouds Overcast 2100 ft
Windchill 20 °F
Dew Point 14 °F
Humidity 77%
Rainfall 0.00 in
Snow Depth Not available.
UV 0 out of 12
Pollen .50 out of 12
Air Quality Not available.
Flu Activity Not available.
METAR KDSM 010654Z 16006KT 6SM -SN BR OVC021 M07/M09 A3037 RMK AO2 SLP299 P0000 T10671089

More Conditions Fewer Conditions

10-Day Weather Forecast

Almanac

Astronomy

Mar. 01, 2015 Rise Set
Actual Time
Civil Twilight
Nautical Twilight
Astronomical Twilight
Moon
Length of Visible Light
Length of Day
Tomorrow will be .
, % of the Moon is Illuminated

Today's Extremes

State Highs State Lows

Community

WunderPhotos

Upload Photos

1,801,347 photos uploaded!

WunderBlogs® & News

Nearby

Air Quality

  Air Quality AQ Index Pollutant
Not available.

Snow Depth

Station Depth Elevation

Earthquake Activity

City Distance Mag. Time & Date
Minimum magnitude displayed is 2.5.

Coastal Water Temperatures

Place Temperature

Nearby Weather Stations